sensor_id;sensor_type;location;lat;lon;timestamp;P1;durP1;ratioP1;P2;durP2;ratioP2
76752;SDS011;65687;51.308;16.916;2023-04-01T00:02:26;7.70;;;4.40;;
76752;SDS011;65687;51.308;16.916;2023-04-01T00:07:27;6.20;;;3.80;;
76752;SDS011;65687;51.308;16.916;2023-04-01T00:12:29;7.30;;;3.40;;
76752;SDS011;65687;51.308;16.916;2023-04-01T00:17:31;5.20;;;3.20;;
76752;SDS011;65687;51.308;16.916;2023-04-01T00:22:32;5.30;;;3.40;;
76752;SDS011;65687;51.308;16.916;2023-04-01T00:27:35;7.10;;;3.50;;
76752;SDS011;65687;51.308;16.916;2023-04-01T00:32:36;6.30;;;3.00;;
76752;SDS011;65687;51.308;16.916;2023-04-01T00:37:38;4.90;;;3.00;;
76752;SDS011;65687;51.308;16.916;2023-04-01T00:42:40;5.10;;;3.00;;
76752;SDS011;65687;51.308;16.916;2023-04-01T00:47:42;4.00;;;2.60;;
76752;SDS011;65687;51.308;16.916;2023-04-01T00:52:43;4.60;;;2.80;;
76752;SDS011;65687;51.308;16.916;2023-04-01T00:57:45;5.50;;;3.10;;
76752;SDS011;65687;51.308;16.916;2023-04-01T01:02:49;3.90;;;2.70;;
76752;SDS011;65687;51.308;16.916;2023-04-01T01:08:01;4.70;;;2.60;;
76752;SDS011;65687;51.308;16.916;2023-04-01T01:13:13;4.00;;;2.30;;
76752;SDS011;65687;51.308;16.916;2023-04-01T01:30:17;4.60;;;2.00;;
76752;SDS011;65687;51.308;16.916;2023-04-01T01:35:38;6.00;;;3.20;;
76752;SDS011;65687;51.308;16.916;2023-04-01T01:40:46;6.20;;;2.60;;
76752;SDS011;65687;51.308;16.916;2023-04-01T01:45:55;3.90;;;2.50;;
76752;SDS011;65687;51.308;16.916;2023-04-01T01:51:01;4.60;;;2.70;;
76752;SDS011;65687;51.308;16.916;2023-04-01T01:56:06;5.80;;;2.90;;
76752;SDS011;65687;51.308;16.916;2023-04-01T02:01:15;5.00;;;2.80;;
76752;SDS011;65687;51.308;16.916;2023-04-01T02:06:22;5.20;;;2.50;;
76752;SDS011;65687;51.308;16.916;2023-04-01T02:11:30;7.20;;;3.40;;
76752;SDS011;65687;51.308;16.916;2023-04-01T02:16:36;5.10;;;2.60;;
76752;SDS011;65687;51.308;16.916;2023-04-01T02:21:44;4.00;;;2.60;;
76752;SDS011;65687;51.308;16.916;2023-04-01T02:26:46;6.10;;;2.80;;
76752;SDS011;65687;51.308;16.916;2023-04-01T02:31:49;7.00;;;3.60;;
76752;SDS011;65687;51.308;16.916;2023-04-01T02:36:52;6.70;;;4.20;;
76752;SDS011;65687;51.308;16.916;2023-04-01T02:41:55;6.20;;;3.80;;
76752;SDS011;65687;51.308;16.916;2023-04-01T02:46:56;7.30;;;3.80;;
76752;SDS011;65687;51.308;16.916;2023-04-01T02:51:58;5.00;;;3.90;;
76752;SDS011;65687;51.308;16.916;2023-04-01T02:57:00;6.00;;;3.70;;
76752;SDS011;65687;51.308;16.916;2023-04-01T03:02:01;6.30;;;3.20;;
76752;SDS011;65687;51.308;16.916;2023-04-01T03:07:03;7.50;;;3.50;;
76752;SDS011;65687;51.308;16.916;2023-04-01T03:12:04;5.10;;;3.50;;
76752;SDS011;65687;51.308;16.916;2023-04-01T03:17:06;5.60;;;2.70;;
76752;SDS011;65687;51.308;16.916;2023-04-01T03:22:09;5.20;;;3.00;;
76752;SDS011;65687;51.308;16.916;2023-04-01T03:27:12;5.50;;;2.80;;
76752;SDS011;65687;51.308;16.916;2023-04-01T03:32:14;5.10;;;2.70;;
76752;SDS011;65687;51.308;16.916;2023-04-01T03:37:15;4.80;;;2.70;;
76752;SDS011;65687;51.308;16.916;2023-04-01T03:42:17;7.00;;;3.00;;
76752;SDS011;65687;51.308;16.916;2023-04-01T03:47:18;3.90;;;2.70;;
76752;SDS011;65687;51.308;16.916;2023-04-01T03:52:20;5.60;;;2.90;;
76752;SDS011;65687;51.308;16.916;2023-04-01T03:57:22;7.80;;;3.50;;
76752;SDS011;65687;51.308;16.916;2023-04-01T04:02:24;5.20;;;3.00;;
76752;SDS011;65687;51.308;16.916;2023-04-01T04:07:26;4.90;;;2.80;;
76752;SDS011;65687;51.308;16.916;2023-04-01T04:12:27;4.70;;;3.00;;
76752;SDS011;65687;51.308;16.916;2023-04-01T04:17:28;7.30;;;3.80;;
76752;SDS011;65687;51.308;16.916;2023-04-01T04:22:30;7.30;;;4.20;;
76752;SDS011;65687;51.308;16.916;2023-04-01T04:27:32;8.10;;;4.70;;
76752;SDS011;65687;51.308;16.916;2023-04-01T04:32:34;6.90;;;4.20;;
76752;SDS011;65687;51.308;16.916;2023-04-01T04:37:36;7.30;;;4.60;;
76752;SDS011;65687;51.308;16.916;2023-04-01T04:42:37;8.80;;;5.50;;
76752;SDS011;65687;51.308;16.916;2023-04-01T04:47:39;9.40;;;6.80;;
76752;SDS011;65687;51.308;16.916;2023-04-01T04:52:40;8.90;;;6.10;;
76752;SDS011;65687;51.308;16.916;2023-04-01T04:57:41;7.40;;;5.70;;
76752;SDS011;65687;51.308;16.916;2023-04-01T05:02:43;7.20;;;5.00;;
76752;SDS011;65687;51.308;16.916;2023-04-01T05:07:45;8.70;;;6.20;;
76752;SDS011;65687;51.308;16.916;2023-04-01T05:12:46;6.50;;;4.60;;
76752;SDS011;65687;51.308;16.916;2023-04-01T05:17:47;5.50;;;4.50;;
76752;SDS011;65687;51.308;16.916;2023-04-01T05:22:55;7.00;;;5.10;;
76752;SDS011;65687;51.308;16.916;2023-04-01T05:27:57;7.40;;;4.90;;
76752;SDS011;65687;51.308;16.916;2023-04-01T05:32:58;6.40;;;4.90;;
76752;SDS011;65687;51.308;16.916;2023-04-01T05:38:00;9.50;;;6.10;;
76752;SDS011;65687;51.308;16.916;2023-04-01T05:43:02;6.60;;;4.30;;
76752;SDS011;65687;51.308;16.916;2023-04-01T05:48:03;6.00;;;4.60;;
76752;SDS011;65687;51.308;16.916;2023-04-01T05:53:05;4.80;;;3.60;;
76752;SDS011;65687;51.308;16.916;2023-04-01T05:58:07;4.50;;;3.30;;
76752;SDS011;65687;51.308;16.916;2023-04-01T06:03:08;4.40;;;3.50;;
76752;SDS011;65687;51.308;16.916;2023-04-01T06:08:11;4.50;;;3.50;;
76752;SDS011;65687;51.308;16.916;2023-04-01T06:19:14;4.30;;;3.50;;
76752;SDS011;65687;51.308;16.916;2023-04-01T06:29:50;5.70;;;4.60;;
76752;SDS011;65687;51.308;16.916;2023-04-01T06:45:56;5.90;;;4.00;;
76752;SDS011;65687;51.308;16.916;2023-04-01T06:51:51;4.80;;;4.00;;
76752;SDS011;65687;51.308;16.916;2023-04-01T06:56:36;4.90;;;3.40;;
76752;SDS011;65687;51.308;16.916;2023-04-01T07:01:42;4.30;;;3.40;;
76752;SDS011;65687;51.308;16.916;2023-04-01T07:06:53;4.70;;;3.10;;
76752;SDS011;65687;51.308;16.916;2023-04-01T07:12:02;6.40;;;3.20;;
76752;SDS011;65687;51.308;16.916;2023-04-01T07:17:15;5.40;;;3.10;;
76752;SDS011;65687;51.308;16.916;2023-04-01T07:27:47;2.90;;;2.40;;
76752;SDS011;65687;51.308;16.916;2023-04-01T07:54:09;4.70;;;3.10;;
76752;SDS011;65687;51.308;16.916;2023-04-01T08:04:34;3.60;;;2.40;;
76752;SDS011;65687;51.308;16.916;2023-04-01T08:15:11;6.60;;;4.10;;
76752;SDS011;65687;51.308;16.916;2023-04-01T08:31:17;8.80;;;4.50;;
76752;SDS011;65687;51.308;16.916;2023-04-01T08:36:32;18.00;;;6.20;;
76752;SDS011;65687;51.308;16.916;2023-04-01T08:58:20;6.00;;;3.50;;
76752;SDS011;65687;51.308;16.916;2023-04-01T09:03:43;7.00;;;4.30;;
76752;SDS011;65687;51.308;16.916;2023-04-01T09:14:38;4.80;;;4.20;;
76752;SDS011;65687;51.308;16.916;2023-04-01T09:30:38;6.80;;;4.60;;
76752;SDS011;65687;51.308;16.916;2023-04-01T09:35:47;6.10;;;4.30;;
76752;SDS011;65687;51.308;16.916;2023-04-01T09:40:56;6.90;;;3.70;;
76752;SDS011;65687;51.308;16.916;2023-04-01T10:13:09;4.30;;;3.00;;
76752;SDS011;65687;51.308;16.916;2023-04-01T10:18:27;4.00;;;2.50;;
76752;SDS011;65687;51.308;16.916;2023-04-01T10:40:13;21.00;;;6.80;;
76752;SDS011;65687;51.308;16.916;2023-04-01T11:18:15;8.90;;;4.10;;
76752;SDS011;65687;51.308;16.916;2023-04-01T11:28:50;5.30;;;3.00;;
76752;SDS011;65687;51.308;16.916;2023-04-01T11:45:26;8.80;;;5.10;;
76752;SDS011;65687;51.308;16.916;2023-04-01T12:01:21;5.10;;;3.10;;
76752;SDS011;65687;51.308;16.916;2023-04-01T12:22:38;3.30;;;2.50;;
76752;SDS011;65687;51.308;16.916;2023-04-01T12:28:10;3.30;;;2.60;;
76752;SDS011;65687;51.308;16.916;2023-04-01T12:33:37;3.70;;;3.30;;
76752;SDS011;65687;51.308;16.916;2023-04-01T13:00:35;8.00;;;5.40;;
76752;SDS011;65687;51.308;16.916;2023-04-01T13:11:18;4.30;;;2.40;;
76752;SDS011;65687;51.308;16.916;2023-04-01T13:21:49;3.60;;;2.80;;
76752;SDS011;65687;51.308;16.916;2023-04-01T13:32:44;3.40;;;2.30;;
76752;SDS011;65687;51.308;16.916;2023-04-01T13:38:08;6.50;;;3.60;;
76752;SDS011;65687;51.308;16.916;2023-04-01T13:48:41;5.00;;;2.90;;
76752;SDS011;65687;51.308;16.916;2023-04-01T14:05:00;4.40;;;3.00;;
76752;SDS011;65687;51.308;16.916;2023-04-01T14:47:46;4.50;;;3.30;;
76752;SDS011;65687;51.308;16.916;2023-04-01T14:53:38;5.10;;;3.50;;
76752;SDS011;65687;51.308;16.916;2023-04-01T14:58:45;3.90;;;3.30;;
76752;SDS011;65687;51.308;16.916;2023-04-01T15:03:52;3.70;;;3.20;;
76752;SDS011;65687;51.308;16.916;2023-04-01T15:14:27;4.20;;;3.40;;
76752;SDS011;65687;51.308;16.916;2023-04-01T15:41:16;5.80;;;3.80;;
76752;SDS011;65687;51.308;16.916;2023-04-01T16:07:55;8.40;;;5.20;;
76752;SDS011;65687;51.308;16.916;2023-04-01T16:23:48;9.30;;;6.10;;
76752;SDS011;65687;51.308;16.916;2023-04-01T16:28:54;10.70;;;6.50;;
76752;SDS011;65687;51.308;16.916;2023-04-01T16:34:19;9.60;;;6.00;;
76752;SDS011;65687;51.308;16.916;2023-04-01T16:51:09;16.40;;;9.70;;
76752;SDS011;65687;51.308;16.916;2023-04-01T17:01:21;23.90;;;12.60;;
76752;SDS011;65687;51.308;16.916;2023-04-01T17:11:39;29.80;;;16.60;;
76752;SDS011;65687;51.308;16.916;2023-04-01T17:17:00;29.90;;;17.70;;
76752;SDS011;65687;51.308;16.916;2023-04-01T17:22:16;31.90;;;17.90;;
76752;SDS011;65687;51.308;16.916;2023-04-01T17:27:31;32.40;;;18.40;;
76752;SDS011;65687;51.308;16.916;2023-04-01T17:48:41;32.20;;;17.60;;
76752;SDS011;65687;51.308;16.916;2023-04-01T18:00:14;31.50;;;17.60;;
76752;SDS011;65687;51.308;16.916;2023-04-01T18:21:32;29.90;;;16.90;;
76752;SDS011;65687;51.308;16.916;2023-04-01T18:26:35;25.90;;;15.90;;
76752;SDS011;65687;51.308;16.916;2023-04-01T18:31:47;24.20;;;13.70;;
76752;SDS011;65687;51.308;16.916;2023-04-01T18:36:56;26.50;;;15.80;;
76752;SDS011;65687;51.308;16.916;2023-04-01T18:42:19;24.60;;;15.80;;
76752;SDS011;65687;51.308;16.916;2023-04-01T18:48:26;26.10;;;15.20;;
76752;SDS011;65687;51.308;16.916;2023-04-01T18:53:30;23.40;;;14.10;;
76752;SDS011;65687;51.308;16.916;2023-04-01T18:58:49;23.90;;;13.90;;
76752;SDS011;65687;51.308;16.916;2023-04-01T19:04:09;26.30;;;16.70;;
76752;SDS011;65687;51.308;16.916;2023-04-01T19:20:16;27.00;;;15.30;;
76752;SDS011;65687;51.308;16.916;2023-04-01T19:25:33;23.00;;;14.30;;
76752;SDS011;65687;51.308;16.916;2023-04-01T19:30:49;24.20;;;15.10;;
76752;SDS011;65687;51.308;16.916;2023-04-01T19:41:46;24.60;;;14.60;;
76752;SDS011;65687;51.308;16.916;2023-04-01T19:52:22;28.00;;;17.60;;
76752;SDS011;65687;51.308;16.916;2023-04-01T19:57:34;28.70;;;16.90;;
76752;SDS011;65687;51.308;16.916;2023-04-01T20:39:48;24.10;;;16.50;;
76752;SDS011;65687;51.308;16.916;2023-04-01T20:56:10;25.60;;;16.50;;
76752;SDS011;65687;51.308;16.916;2023-04-01T21:06:21;24.30;;;15.50;;
76752;SDS011;65687;51.308;16.916;2023-04-01T21:11:35;24.70;;;16.30;;
76752;SDS011;65687;51.308;16.916;2023-04-01T21:44:10;26.50;;;16.20;;
76752;SDS011;65687;51.308;16.916;2023-04-01T21:49:33;27.30;;;16.50;;
76752;SDS011;65687;51.308;16.916;2023-04-01T22:00:38;21.00;;;12.30;;
76752;SDS011;65687;51.308;16.916;2023-04-01T22:10:52;24.30;;;15.20;;
76752;SDS011;65687;51.308;16.916;2023-04-01T22:16:16;20.00;;;12.20;;
76752;SDS011;65687;51.308;16.916;2023-04-01T22:32:43;19.80;;;12.00;;
76752;SDS011;65687;51.308;16.916;2023-04-01T22:43:00;17.20;;;9.80;;
76752;SDS011;65687;51.308;16.916;2023-04-01T22:48:11;18.30;;;10.90;;
76752;SDS011;65687;51.308;16.916;2023-04-01T22:53:46;18.50;;;11.50;;
76752;SDS011;65687;51.308;16.916;2023-04-01T22:58:56;17.40;;;10.60;;
76752;SDS011;65687;51.308;16.916;2023-04-01T23:04:04;12.30;;;8.00;;
76752;SDS011;65687;51.308;16.916;2023-04-01T23:09:08;15.30;;;9.40;;
76752;SDS011;65687;51.308;16.916;2023-04-01T23:19:40;15.70;;;10.30;;
76752;SDS011;65687;51.308;16.916;2023-04-01T23:41:28;15.80;;;10.60;;
76752;SDS011;65687;51.308;16.916;2023-04-01T23:46:31;16.10;;;10.00;;
76752;SDS011;65687;51.308;16.916;2023-04-01T23:51:37;25.70;;;14.20;;
76752;SDS011;65687;51.308;16.916;2023-04-01T23:56:42;16.80;;;10.00;;
